Time;durP1;ratioP1;P1;durP2;ratioP2;P2;SDS_P1;SDS_P2;PMS_P1;PMS_P2;Temp;Humidity;BMP_temperature;BMP_pressure;BME280_temperature;BME280_humidity;BME280_pressure;Samples;Min_cycle;Max_cycle;Signal;HPM_P1;HPM_P2
2023/03/15 00:00:46;;;;;;;4.50;4.10;;;4.50;99.90;;;;;;5024002;28;20446;-68
2023/03/15 00:03:13;;;;;;;4.33;4.00;;;4.60;99.90;;;;;;5024292;28;21122;-71
2023/03/15 00:05:42;;;;;;;3.77;3.47;;;4.50;99.90;;;;;;5024686;28;20497;-70
2023/03/15 00:08:07;;;;;;;4.00;3.70;;;4.50;99.90;;;;;;5024267;28;20519;-67
2023/03/15 00:10:33;;;;;;;5.03;3.70;;;4.50;99.90;;;;;;5024050;28;21403;-67
2023/03/15 00:12:59;;;;;;;4.57;4.17;;;4.60;99.90;;;;;;5024461;28;20176;-67
2023/03/15 00:15:25;;;;;;;4.20;3.80;;;4.60;99.90;;;;;;5023837;28;20179;-67
2023/03/15 00:17:51;;;;;;;4.93;4.53;;;4.60;99.90;;;;;;5022355;28;20491;-68
2023/03/15 00:20:18;;;;;;;5.33;4.80;;;4.60;99.90;;;;;;5023950;28;20666;-67
2023/03/15 00:22:44;;;;;;;4.43;4.03;;;4.50;99.90;;;;;;5024504;28;20194;-69
2023/03/15 00:25:10;;;;;;;5.17;4.67;;;4.50;99.90;;;;;;5024311;28;20913;-67
2023/03/15 00:27:35;;;;;;;6.70;5.03;;;4.50;99.90;;;;;;5024218;28;20497;-68
2023/03/15 00:30:01;;;;;;;5.20;4.67;;;4.70;99.90;;;;;;5024383;28;20208;-68
2023/03/15 00:32:27;;;;;;;7.53;5.67;;;4.60;99.90;;;;;;5023896;28;20179;-71
2023/03/15 00:34:53;;;;;;;8.00;5.23;;;4.40;99.90;;;;;;5024134;28;20715;-68
2023/03/15 00:37:19;;;;;;;5.90;4.87;;;4.50;99.90;;;;;;5024006;28;20186;-67
2023/03/15 00:39:46;;;;;;;6.70;5.40;;;4.50;99.90;;;;;;5023809;28;20456;-69
2023/03/15 00:42:16;;;;;;;8.20;7.33;;;4.50;99.90;;;;;;5024184;28;20418;-68
2023/03/15 00:44:42;;;;;;;7.57;6.20;;;4.50;99.90;;;;;;5023705;28;20406;-68
2023/03/15 00:47:12;;;;;;;10.20;5.73;;;4.60;99.90;;;;;;5023296;28;21164;-71
2023/03/15 00:49:38;;;;;;;10.23;5.03;;;4.40;99.90;;;;;;5023421;28;20433;-69
2023/03/15 00:52:05;;;;;;;7.97;5.20;;;4.60;99.90;;;;;;5023773;28;20425;-67
2023/03/15 00:54:32;;;;;;;9.50;6.03;;;4.70;99.90;;;;;;5023258;28;20467;-71
2023/03/15 00:56:58;;;;;;;6.00;5.07;;;4.60;99.90;;;;;;5023551;28;20415;-69
2023/03/15 00:59:24;;;;;;;6.97;5.17;;;4.60;99.90;;;;;;5023089;28;20445;-67
2023/03/15 01:01:49;;;;;;;7.17;4.90;;;4.50;99.90;;;;;;5023069;28;20780;-68
2023/03/15 01:04:15;;;;;;;7.03;5.57;;;4.60;99.90;;;;;;5023658;28;20203;-68
2023/03/15 01:06:41;;;;;;;7.63;5.13;;;4.90;99.90;;;;;;5021810;28;20189;-67
2023/03/15 01:09:08;;;;;;;6.97;4.40;;;5.10;99.90;;;;;;5023429;28;20223;-69
2023/03/15 01:11:34;;;;;;;8.60;4.87;;;5.10;99.90;;;;;;5022881;28;20176;-70
2023/03/15 01:14:02;;;;;;;9.23;5.00;;;4.90;99.90;;;;;;5022566;28;20456;-68
2023/03/15 01:16:28;;;;;;;7.90;4.20;;;5.10;99.90;;;;;;5022199;28;20505;-68
2023/03/15 01:18:53;;;;;;;7.23;4.60;;;5.10;99.90;;;;;;5023241;28;21050;-69
2023/03/15 01:21:21;;;;;;;7.20;3.70;;;5.10;99.90;;;;;;5023912;28;20203;-68
2023/03/15 01:23:46;;;;;;;4.83;3.50;;;5.00;99.90;;;;;;5023494;28;20198;-68
2023/03/15 01:26:14;;;;;;;6.23;3.67;;;4.90;99.90;;;;;;5022827;28;20418;-68
2023/03/15 01:28:40;;;;;;;5.07;3.37;;;4.80;99.90;;;;;;5021492;28;20210;-67
2023/03/15 01:31:08;;;;;;;6.63;3.53;;;4.80;99.90;;;;;;5023394;28;20955;-68
2023/03/15 01:33:34;;;;;;;5.57;3.97;;;4.80;99.90;;;;;;5022482;28;20441;-68
2023/03/15 01:36:00;;;;;;;4.83;3.20;;;4.70;99.90;;;;;;5023257;28;20406;-69
2023/03/15 01:38:26;;;;;;;6.73;3.40;;;4.60;99.90;;;;;;5022893;28;20214;-69
2023/03/15 01:40:51;;;;;;;7.40;2.83;;;4.50;99.90;;;;;;5023174;28;20481;-69
2023/03/15 01:43:22;;;;;;;4.77;3.00;;;4.60;99.90;;;;;;5023165;28;20577;-70
2023/03/15 01:46:04;;;;;;;5.23;2.67;;;4.50;99.90;;;;;;5022835;28;20640;-66
2023/03/15 01:48:43;;;;;;;5.23;3.33;;;4.50;99.90;;;;;;5022951;28;20398;-69
2023/03/15 01:51:25;;;;;;;6.70;3.10;;;4.50;99.90;;;;;;5023179;28;20402;-70
2023/03/15 01:53:57;;;;;;;9.40;3.67;;;4.60;99.90;;;;;;5022786;28;20827;-68
2023/03/15 01:56:24;;;;;;;9.53;3.20;;;4.70;99.90;;;;;;5022599;28;20408;-71
2023/03/15 01:58:52;;;;;;;4.97;2.80;;;4.50;99.90;;;;;;5022995;28;20445;-69
2023/03/15 02:01:19;;;;;;;2.47;2.17;;;4.60;99.90;;;;;;5029603;23;20505;-68
2023/03/15 02:03:48;;;;;;;4.63;2.40;;;4.80;99.90;;;;;;5003041;28;20462;-70
2023/03/15 02:06:18;;;;;;;5.47;2.80;;;4.70;99.90;;;;;;5023207;28;20938;-69
2023/03/15 02:08:50;;;;;;;5.80;2.80;;;4.60;99.90;;;;;;5016733;28;20398;-70
2023/03/15 02:11:19;;;;;;;5.20;2.27;;;4.50;99.90;;;;;;5017867;28;20746;-67
2023/03/15 02:13:48;;;;;;;4.40;2.03;;;4.40;99.90;;;;;;5009494;28;20402;-71
2023/03/15 02:16:14;;;;;;;3.90;2.43;;;4.30;99.90;;;;;;5010691;28;20454;-68
2023/03/15 02:18:39;;;;;;;6.40;3.30;;;4.40;99.90;;;;;;5013463;28;20639;-71
2023/03/15 02:21:39;;;;;;;4.73;2.50;;;4.50;99.90;;;;;;5022802;28;20456;-71
2023/03/15 02:24:13;;;;;;;5.87;3.40;;;4.50;99.90;;;;;;5017930;28;20177;-70
2023/03/15 02:26:47;;;;;;;3.07;2.33;;;4.40;99.90;;;;;;5021356;28;20412;-71
2023/03/15 02:29:13;;;;;;;4.27;2.00;;;4.40;99.90;;;;;;5012684;28;20403;-72
2023/03/15 02:31:39;;;;;;;3.97;2.10;;;4.30;99.90;;;;;;5012786;28;20801;-68
2023/03/15 02:34:06;;;;;;;7.07;2.10;;;4.10;99.90;;;;;;5012075;28;20168;-71
2023/03/15 02:36:34;;;;;;;6.27;1.80;;;4.00;99.90;;;;;;5015839;28;20659;-69
2023/03/15 02:39:00;;;;;;;5.00;2.37;;;4.20;99.90;;;;;;5015741;28;20407;-69
2023/03/15 02:41:41;;;;;;;2.73;2.20;;;4.20;99.90;;;;;;5009747;28;20692;-70
2023/03/15 02:44:31;;;;;;;3.30;2.20;;;4.20;99.90;;;;;;5007078;28;20783;-69
2023/03/15 02:47:03;;;;;;;5.13;2.20;;;4.00;99.90;;;;;;5016165;28;20418;-68
2023/03/15 02:49:35;;;;;;;3.40;1.83;;;4.10;99.90;;;;;;5017543;28;20946;-69
2023/03/15 02:52:00;;;;;;;1.63;1.53;;;4.20;99.90;;;;;;5010988;28;21069;-69
2023/03/15 02:54:26;;;;;;;2.47;1.50;;;4.20;99.90;;;;;;5013525;28;20402;-71
2023/03/15 02:56:52;;;;;;;6.50;1.80;;;4.30;99.90;;;;;;5016504;28;20171;-69
2023/03/15 02:59:17;;;;;;;4.70;2.00;;;4.30;99.90;;;;;;5009220;28;20168;-72
2023/03/15 03:01:44;;;;;;;4.67;1.90;;;4.20;99.90;;;;;;5012795;28;20731;-70
2023/03/15 03:04:10;;;;;;;2.73;1.80;;;4.10;99.90;;;;;;5019922;28;20175;-68
2023/03/15 03:06:36;;;;;;;6.00;1.87;;;4.20;99.90;;;;;;5020993;28;20422;-69
2023/03/15 03:09:02;;;;;;;4.00;2.03;;;4.20;99.90;;;;;;5017746;28;20603;-70
2023/03/15 03:11:27;;;;;;;5.77;1.77;;;4.20;99.90;;;;;;5026342;28;20203;-69
2023/03/15 03:13:53;;;;;;;4.30;1.20;;;4.10;99.90;;;;;;5017306;28;20426;-69
2023/03/15 03:16:18;;;;;;;5.23;1.93;;;4.20;99.90;;;;;;5010020;28;20714;-71
2023/03/15 03:18:44;;;;;;;3.30;1.90;;;4.20;99.90;;;;;;5014333;28;20568;-68
2023/03/15 03:21:09;;;;;;;2.27;1.50;;;4.10;99.90;;;;;;5014146;28;20214;-70
2023/03/15 03:23:36;;;;;;;4.77;3.00;;;4.20;99.90;;;;;;5019156;28;20207;-71
2023/03/15 03:26:03;;;;;;;2.03;1.50;;;4.20;99.90;;;;;;5024533;28;20171;-69
2023/03/15 03:28:30;;;;;;;5.23;1.93;;;4.20;99.90;;;;;;5018470;28;20414;-70
2023/03/15 03:30:57;;;;;;;4.00;1.80;;;4.10;99.90;;;;;;5024850;28;20441;-71
2023/03/15 03:33:23;;;;;;;3.93;2.07;;;4.10;99.90;;;;;;5013682;28;20472;-70
2023/03/15 03:35:49;;;;;;;4.83;2.40;;;4.00;99.90;;;;;;5020018;28;20489;-70
2023/03/15 03:38:15;;;;;;;3.80;2.13;;;4.00;99.90;;;;;;5005082;28;20900;-72
2023/03/15 03:40:41;;;;;;;5.13;2.87;;;4.00;99.90;;;;;;5005352;28;20501;-74
2023/03/15 03:43:07;;;;;;;4.20;2.13;;;4.00;99.90;;;;;;5006549;28;20479;-68
2023/03/15 03:45:33;;;;;;;5.20;2.70;;;4.10;99.90;;;;;;5012500;28;20266;-71
2023/03/15 03:47:59;;;;;;;5.10;2.57;;;4.10;99.90;;;;;;5023757;28;20406;-70
2023/03/15 03:50:25;;;;;;;6.87;2.60;;;3.80;99.90;;;;;;5013923;28;20502;-70
2023/03/15 03:52:51;;;;;;;3.47;1.57;;;3.80;99.90;;;;;;5011257;28;20225;-70
2023/03/15 03:55:16;;;;;;;4.43;2.27;;;3.90;99.90;;;;;;5020963;28;20210;-70
2023/03/15 03:57:42;;;;;;;4.37;2.50;;;4.00;99.90;;;;;;5021078;28;20423;-69
2023/03/15 04:00:13;;;;;;;2.70;2.37;;;4.10;99.90;;;;;;5016728;28;20426;-68
2023/03/15 04:02:41;;;;;;;4.30;2.40;;;4.10;99.90;;;;;;5023610;28;20414;-69
2023/03/15 04:05:08;;;;;;;4.30;2.73;;;4.20;99.90;;;;;;5025421;28;20912;-67
2023/03/15 04:07:33;;;;;;;5.00;2.80;;;4.30;99.90;;;;;;5018938;28;20457;-70
2023/03/15 04:10:01;;;;;;;5.03;2.50;;;4.20;99.90;;;;;;5007986;28;21008;-68
2023/03/15 04:12:27;;;;;;;5.30;2.83;;;4.20;99.90;;;;;;5005252;28;20723;-71
2023/03/15 04:14:52;;;;;;;6.73;2.63;;;4.20;99.90;;;;;;5005755;28;20425;-70
2023/03/15 04:17:18;;;;;;;3.90;2.50;;;4.00;99.90;;;;;;5007455;28;20811;-69
2023/03/15 04:19:46;;;;;;;4.40;2.20;;;4.00;99.90;;;;;;5018995;28;20206;-70
2023/03/15 04:22:14;;;;;;;4.53;2.63;;;4.00;99.90;;;;;;5025115;28;20167;-68
2023/03/15 04:24:42;;;;;;;6.30;3.30;;;3.80;99.90;;;;;;5023320;28;20429;-69
2023/03/15 04:27:08;;;;;;;4.23;2.67;;;3.90;99.90;;;;;;5024908;28;20486;-72
2023/03/15 04:29:34;;;;;;;2.83;2.27;;;3.90;99.90;;;;;;5006421;28;21688;-69
2023/03/15 04:32:01;;;;;;;3.97;2.97;;;4.00;99.90;;;;;;5009843;28;20871;-68
2023/03/15 04:34:30;;;;;;;5.60;3.20;;;3.90;99.90;;;;;;5020716;28;20175;-71
2023/03/15 04:36:56;;;;;;;5.40;3.27;;;4.00;99.90;;;;;;5024562;28;20418;-70
2023/03/15 04:39:22;;;;;;;6.47;3.83;;;4.00;99.90;;;;;;5005140;28;20848;-69
2023/03/15 04:41:49;;;;;;;5.40;4.03;;;3.90;99.90;;;;;;5005319;28;21168;-71
2023/03/15 04:44:15;;;;;;;9.00;3.40;;;4.00;99.90;;;;;;5005058;28;20410;-70
2023/03/15 04:46:42;;;;;;;6.53;2.80;;;4.00;99.90;;;;;;5019238;28;20398;-70
2023/03/15 04:49:07;;;;;;;5.67;3.17;;;4.10;99.90;;;;;;5024521;28;20410;-70
2023/03/15 04:51:33;;;;;;;7.67;3.90;;;4.10;99.90;;;;;;5024540;28;20836;-68
2023/03/15 04:53:59;;;;;;;7.47;3.17;;;4.00;99.90;;;;;;5005069;28;20172;-69
2023/03/15 04:56:25;;;;;;;5.90;3.50;;;4.00;99.90;;;;;;5005002;28;20421;-70
2023/03/15 04:58:51;;;;;;;4.13;2.90;;;4.00;99.90;;;;;;5004750;28;20418;-72
2023/03/15 05:01:16;;;;;;;6.70;3.40;;;4.00;99.90;;;;;;5004362;28;20481;-70
2023/03/15 05:03:42;;;;;;;7.67;3.20;;;4.00;99.90;;;;;;5002913;28;20175;-70
2023/03/15 05:06:07;;;;;;;8.07;3.47;;;4.10;99.90;;;;;;5004489;28;20211;-69
2023/03/15 05:08:35;;;;;;;6.13;3.93;;;4.10;99.90;;;;;;5016956;28;20272;-68
2023/03/15 05:11:03;;;;;;;4.13;3.23;;;4.00;99.90;;;;;;5024070;28;20199;-69
2023/03/15 05:13:29;;;;;;;7.00;3.53;;;4.00;99.90;;;;;;5006321;28;20418;-69
2023/03/15 05:15:56;;;;;;;9.37;2.80;;;4.00;99.90;;;;;;5007263;28;20406;-69
2023/03/15 05:18:21;;;;;;;3.40;2.80;;;4.00;99.90;;;;;;5002823;28;20411;-70
2023/03/15 05:20:47;;;;;;;4.03;3.00;;;4.00;99.90;;;;;;5014971;28;20458;-69
2023/03/15 05:23:12;;;;;;;9.27;3.50;;;3.90;99.90;;;;;;5007441;28;20262;-69
2023/03/15 05:25:38;;;;;;;8.60;3.80;;;3.90;99.90;;;;;;5015921;28;20203;-68
2023/03/15 05:28:04;;;;;;;6.57;3.30;;;3.90;99.90;;;;;;5024240;28;20526;-69
2023/03/15 05:30:31;;;;;;;4.00;3.23;;;4.00;99.90;;;;;;5023770;28;20460;-70
2023/03/15 05:32:56;;;;;;;6.50;3.20;;;4.00;99.90;;;;;;5005504;28;20414;-74
2023/03/15 05:35:25;;;;;;;5.33;2.80;;;4.00;99.90;;;;;;5003978;28;20762;-70
2023/03/15 05:37:51;;;;;;;5.47;3.33;;;4.00;99.90;;;;;;5013087;28;20383;-70
2023/03/15 05:40:17;;;;;;;5.87;3.57;;;3.90;99.90;;;;;;5023369;28;20944;-68
2023/03/15 05:42:43;;;;;;;4.57;3.07;;;3.90;99.90;;;;;;5013538;28;20538;-70
2023/03/15 05:45:09;;;;;;;9.47;3.53;;;4.00;99.90;;;;;;5006086;28;20176;-68
2023/03/15 05:47:34;;;;;;;7.00;3.23;;;4.00;99.90;;;;;;5012755;28;20545;-70
2023/03/15 05:50:00;;;;;;;3.53;2.97;;;3.90;99.90;;;;;;5023038;28;20422;-68
2023/03/15 05:52:25;;;;;;;9.50;3.10;;;3.90;99.90;;;;;;5018462;28;20198;-70
2023/03/15 05:54:51;;;;;;;5.23;3.40;;;3.80;99.90;;;;;;5003614;28;20323;-71
2023/03/15 05:57:17;;;;;;;5.43;3.20;;;3.80;99.90;;;;;;5003880;28;20183;-71
2023/03/15 05:59:42;;;;;;;6.90;3.93;;;3.80;99.90;;;;;;5002121;28;20211;-69
2023/03/15 06:02:08;;;;;;;7.63;3.73;;;3.70;99.90;;;;;;5010807;28;20652;-70
2023/03/15 06:04:33;;;;;;;4.73;3.00;;;3.70;99.90;;;;;;5023119;28;20707;-71
2023/03/15 06:06:59;;;;;;;5.63;3.40;;;3.60;99.90;;;;;;5023245;28;20261;-72
2023/03/15 06:09:24;;;;;;;6.13;3.20;;;3.70;99.90;;;;;;5017441;28;20184;-70
2023/03/15 06:11:51;;;;;;;4.10;2.70;;;3.70;99.90;;;;;;5011840;28;20646;-69
2023/03/15 06:14:16;;;;;;;9.73;3.33;;;3.80;99.90;;;;;;5017487;28;20172;-70
2023/03/15 06:16:42;;;;;;;8.03;4.50;;;3.70;99.90;;;;;;5004607;28;20418;-70
2023/03/15 06:19:07;;;;;;;6.40;3.60;;;3.70;99.90;;;;;;5018555;28;20179;-69
2023/03/15 06:21:33;;;;;;;6.40;3.40;;;3.80;99.90;;;;;;5023337;28;20211;-67
2023/03/15 06:23:58;;;;;;;4.10;3.70;;;3.90;99.90;;;;;;5023395;28;20245;-73
2023/03/15 06:26:24;;;;;;;7.23;3.67;;;3.90;99.90;;;;;;5022955;28;20190;-70
2023/03/15 06:28:50;;;;;;;6.00;3.90;;;3.90;99.90;;;;;;5019184;28;20201;-69
2023/03/15 06:31:15;;;;;;;6.00;3.90;;;4.00;99.90;;;;;;5002125;28;20231;-73
2023/03/15 06:33:41;;;;;;;8.87;4.30;;;3.90;99.90;;;;;;5003227;28;20206;-73
2023/03/15 06:36:07;;;;;;;9.23;4.33;;;4.00;99.90;;;;;;5005747;28;20263;-71
2023/03/15 06:38:33;;;;;;;7.77;4.00;;;4.10;99.90;;;;;;5013615;28;20198;-70
2023/03/15 06:41:03;;;;;;;8.80;3.90;;;4.00;99.90;;;;;;5014243;28;20681;-70
2023/03/15 06:43:30;;;;;;;5.80;3.77;;;4.10;99.90;;;;;;5023801;28;20395;-70
2023/03/15 06:45:58;;;;;;;4.77;3.23;;;4.00;99.90;;;;;;5011753;28;20418;-69
2023/03/15 06:48:24;;;;;;;3.47;3.00;;;4.00;99.90;;;;;;5016834;28;20796;-69
2023/03/15 06:50:50;;;;;;;6.30;4.10;;;4.10;99.90;;;;;;5009290;28;20443;-71
2023/03/15 06:53:16;;;;;;;6.57;3.90;;;4.00;99.90;;;;;;5011332;28;20433;-71
2023/03/15 06:55:42;;;;;;;6.17;3.50;;;3.90;99.90;;;;;;5023081;28;20292;-70
2023/03/15 06:58:08;;;;;;;8.60;3.97;;;3.90;99.90;;;;;;5015562;28;20865;-69
2023/03/15 07:00:34;;;;;;;12.93;4.40;;;3.80;99.90;;;;;;5017840;28;20547;-69
2023/03/15 07:02:59;;;;;;;6.13;2.80;;;3.90;99.90;;;;;;5006703;28;20234;-69
2023/03/15 07:05:25;;;;;;;4.33;2.87;;;4.00;99.90;;;;;;5015224;28;20423;-70
2023/03/15 07:07:50;;;;;;;9.70;3.90;;;4.10;99.90;;;;;;5002804;28;20195;-72
2023/03/15 07:10:16;;;;;;;6.20;3.10;;;4.10;99.90;;;;;;5006898;28;20214;-73
2023/03/15 07:12:42;;;;;;;4.90;3.10;;;4.10;99.90;;;;;;5020608;28;20658;-68
2023/03/15 07:15:08;;;;;;;6.00;3.20;;;4.20;99.90;;;;;;5011764;28;20188;-69
2023/03/15 07:17:33;;;;;;;6.23;4.27;;;4.40;99.90;;;;;;5025042;28;20214;-69
2023/03/15 07:19:59;;;;;;;5.27;4.10;;;4.50;99.90;;;;;;5013256;28;20500;-69
2023/03/15 07:22:25;;;;;;;11.90;4.17;;;4.60;99.90;;;;;;5015629;28;20175;-69
2023/03/15 07:24:51;;;;;;;5.67;3.10;;;4.80;99.90;;;;;;5007925;28;20735;-69
2023/03/15 07:27:17;;;;;;;5.00;3.10;;;4.80;99.90;;;;;;5011581;28;20424;-69
2023/03/15 07:29:42;;;;;;;8.13;3.67;;;4.90;99.90;;;;;;5009942;28;20202;-69
2023/03/15 07:32:08;;;;;;;5.30;2.80;;;4.90;99.90;;;;;;5012092;28;20422;-71
2023/03/15 07:34:34;;;;;;;7.80;2.80;;;4.80;99.90;;;;;;5020810;28;20196;-69
2023/03/15 07:36:59;;;;;;;7.23;2.97;;;4.70;99.90;;;;;;5010639;28;20674;-69
2023/03/15 07:39:25;;;;;;;3.83;2.80;;;4.80;99.90;;;;;;5020865;28;20318;-70
2023/03/15 07:41:52;;;;;;;6.47;3.10;;;4.80;99.90;;;;;;5025080;28;20409;-70
2023/03/15 07:44:18;;;;;;;4.00;2.93;;;4.90;99.90;;;;;;5015991;28;20627;-70
2023/03/15 07:46:44;;;;;;;6.40;2.90;;;5.00;99.90;;;;;;5014132;28;20414;-69
2023/03/15 07:49:10;;;;;;;4.30;2.30;;;5.10;99.90;;;;;;5011691;28;20819;-69
2023/03/15 07:51:35;;;;;;;6.33;3.00;;;5.10;99.90;;;;;;5025754;28;20476;-68
2023/03/15 07:54:01;;;;;;;7.57;3.20;;;5.20;99.90;;;;;;5014621;28;20184;-68
2023/03/15 07:56:26;;;;;;;5.90;2.63;;;5.30;99.90;;;;;;5016339;28;20191;-70
2023/03/15 07:58:52;;;;;;;5.90;2.80;;;5.30;99.90;;;;;;5008780;28;20180;-69
2023/03/15 08:01:17;;;;;;;5.70;2.33;;;5.10;99.90;;;;;;5005905;28;20310;-68
2023/03/15 08:03:43;;;;;;;8.60;3.00;;;5.10;99.90;;;;;;5006342;28;20288;-69
2023/03/15 08:06:08;;;;;;;2.93;2.40;;;5.00;99.90;;;;;;5023586;28;20249;-68
2023/03/15 08:08:34;;;;;;;8.70;3.67;;;5.20;99.90;;;;;;5010747;28;20381;-67
2023/03/15 08:11:00;;;;;;;4.87;2.90;;;5.30;99.90;;;;;;5025742;28;20212;-69
2023/03/15 08:13:25;;;;;;;6.20;2.80;;;5.50;99.90;;;;;;5017985;28;20176;-70
2023/03/15 08:15:51;;;;;;;3.23;2.17;;;5.40;99.90;;;;;;5006266;28;20673;-70
2023/03/15 08:18:17;;;;;;;5.30;2.90;;;5.10;99.90;;;;;;5013799;28;20188;-68
2023/03/15 08:20:43;;;;;;;3.70;2.27;;;5.00;99.90;;;;;;5005417;28;20488;-70
2023/03/15 08:23:09;;;;;;;5.47;2.50;;;4.90;99.90;;;;;;5017598;28;20222;-68
2023/03/15 08:25:39;;;;;;;3.57;2.60;;;5.10;99.90;;;;;;5011734;28;20173;-70
2023/03/15 08:28:05;;;;;;;6.00;2.70;;;5.20;99.90;;;;;;5006337;28;20407;-68
2023/03/15 08:30:30;;;;;;;5.67;2.57;;;5.10;99.90;;;;;;5005920;28;20818;-68
2023/03/15 08:32:56;;;;;;;8.73;3.90;;;5.20;99.90;;;;;;5016259;28;20603;-66
2023/03/15 08:35:21;;;;;;;5.13;2.47;;;5.40;99.90;;;;;;5007202;28;20554;-70
2023/03/15 08:37:47;;;;;;;6.67;3.57;;;5.40;99.90;;;;;;5013493;28;20599;-69
2023/03/15 08:40:15;;;;;;;4.37;2.73;;;5.70;99.90;;;;;;5005293;28;20964;-69
2023/03/15 08:42:40;;;;;;;2.60;2.40;;;5.70;99.90;;;;;;5013011;28;20202;-68
2023/03/15 08:45:07;;;;;;;4.70;2.37;;;5.90;99.90;;;;;;5020725;28;20406;-69
2023/03/15 08:47:34;;;;;;;4.67;2.50;;;6.10;99.90;;;;;;5017992;28;20175;-71
2023/03/15 08:50:00;;;;;;;4.53;2.80;;;6.30;99.90;;;;;;5018287;28;20763;-72
2023/03/15 08:52:26;;;;;;;9.23;2.67;;;6.30;99.90;;;;;;5011626;28;20430;-70
2023/03/15 08:54:51;;;;;;;6.60;2.70;;;6.40;99.90;;;;;;5013274;28;20909;-67
2023/03/15 08:57:17;;;;;;;4.47;2.47;;;6.60;99.90;;;;;;5014818;28;20176;-70
2023/03/15 08:59:42;;;;;;;6.10;2.90;;;6.90;99.90;;;;;;5016904;28;20223;-68
2023/03/15 09:02:10;;;;;;;5.50;2.80;;;7.00;99.90;;;;;;5017581;28;20746;-70
2023/03/15 09:04:36;;;;;;;5.10;2.10;;;6.90;99.90;;;;;;5014453;28;20174;-69
2023/03/15 09:07:01;;;;;;;5.90;2.30;;;6.80;99.90;;;;;;5016376;28;20429;-70
2023/03/15 09:09:27;;;;;;;4.60;2.20;;;6.90;99.90;;;;;;5020212;28;20185;-69
2023/03/15 09:11:54;;;;;;;3.50;2.30;;;7.20;99.90;;;;;;5022176;28;20944;-69
2023/03/15 09:14:19;;;;;;;4.43;2.10;;;7.20;99.90;;;;;;5024934;28;20221;-69
2023/03/15 09:16:45;;;;;;;8.60;2.43;;;7.00;99.90;;;;;;5018930;28;20858;-69
2023/03/15 09:19:11;;;;;;;6.30;2.33;;;7.00;99.90;;;;;;5007544;28;20204;-71
2023/03/15 09:21:36;;;;;;;7.53;3.10;;;7.30;99.90;;;;;;5010614;28;20210;-69
2023/03/15 09:24:02;;;;;;;8.33;2.90;;;7.70;99.90;;;;;;5010506;28;20604;-68
2023/03/15 09:26:27;;;;;;;5.57;2.50;;;8.00;99.90;;;;;;5020029;28;20564;-74
2023/03/15 09:28:53;;;;;;;5.30;2.20;;;8.00;99.90;;;;;;5015536;28;20191;-73
2023/03/15 09:31:18;;;;;;;5.80;2.80;;;7.80;99.90;;;;;;5020015;28;20215;-68
2023/03/15 09:33:47;;;;;;;9.30;2.63;;;7.80;99.90;;;;;;5011479;28;20189;-70
2023/03/15 09:36:12;;;;;;;4.93;2.40;;;8.10;99.90;;;;;;5020554;28;20232;-73
2023/03/15 09:38:38;;;;;;;5.23;1.80;;;7.80;99.90;;;;;;5013763;28;20410;-69
2023/03/15 09:41:04;;;;;;;7.97;2.10;;;7.90;99.90;;;;;;5023956;28;20204;-69
2023/03/15 09:43:47;;;;;;;3.33;2.07;;;7.90;99.90;;;;;;5021146;28;20271;-71
2023/03/15 09:46:39;;;;;;;3.00;1.80;;;7.90;99.90;;;;;;5019971;28;20612;-71
2023/03/15 09:49:25;;;;;;;5.57;1.70;;;8.20;99.90;;;;;;5004929;28;21250;-70
2023/03/15 09:51:59;;;;;;;3.90;2.50;;;7.80;99.90;;;;;;5013459;28;20432;-74
2023/03/15 09:54:35;;;;;;;7.30;2.50;;;7.80;99.90;;;;;;5024011;28;20418;-70
2023/03/15 09:57:03;;;;;;;5.03;2.47;;;8.00;99.90;;;;;;5019567;28;20475;-74
2023/03/15 09:59:36;;;;;;;3.97;2.50;;;8.00;99.90;;;;;;5023535;28;20509;-69
2023/03/15 10:02:12;;;;;;;5.00;2.20;;;8.10;99.90;;;;;;5015722;28;20421;-72
2023/03/15 10:04:41;;;;;;;2.80;1.60;;;8.10;99.90;;;;;;5010397;28;20414;-73
2023/03/15 10:07:12;;;;;;;2.70;2.07;;;8.20;99.90;;;;;;5014710;28;20427;-70
2023/03/15 10:09:38;;;;;;;5.10;2.23;;;8.10;99.90;;;;;;5012576;28;20446;-70
2023/03/15 10:12:13;;;;;;;4.20;2.33;;;8.20;99.90;;;;;;5007050;28;20814;-69
2023/03/15 10:14:47;;;;;;;3.77;1.60;;;8.60;99.90;;;;;;5004452;28;20764;-71
2023/03/15 10:17:44;;;;;;;3.53;1.97;;;8.70;99.70;;;;;;5012382;28;20445;-68
2023/03/15 10:20:17;;;;;;;6.20;2.20;;;8.60;99.80;;;;;;4976427;28;20572;-70
2023/03/15 10:22:59;;;;;;;3.30;1.77;;;8.80;99.90;;;;;;5008201;28;20435;-70
2023/03/15 10:25:29;;;;;;;2.67;1.60;;;8.80;99.60;;;;;;5013844;28;20416;-70
2023/03/15 10:28:04;;;;;;;5.10;1.67;;;9.00;99.30;;;;;;5021218;28;20404;-70
2023/03/15 10:30:33;;;;;;;3.03;1.30;;;9.10;98.60;;;;;;5019588;28;20439;-69
2023/03/15 10:33:13;;;;;;;2.83;1.80;;;9.20;98.60;;;;;;5009326;28;20425;-69
2023/03/15 10:35:38;;;;;;;4.70;1.60;;;9.10;98.70;;;;;;5003336;28;20439;-69
2023/03/15 10:38:18;;;;;;;5.03;1.90;;;9.10;98.40;;;;;;5008141;28;20430;-70
2023/03/15 10:40:47;;;;;;;4.87;1.90;;;8.80;97.70;;;;;;5022481;28;20220;-69
2023/03/15 10:43:16;;;;;;;3.97;1.67;;;9.10;97.90;;;;;;5010634;28;20840;-69
2023/03/15 10:45:45;;;;;;;2.93;1.87;;;9.30;97.60;;;;;;5024756;28;20445;-72
2023/03/15 10:48:11;;;;;;;4.37;1.50;;;9.80;97.50;;;;;;5021472;28;20419;-71
2023/03/15 10:50:38;;;;;;;6.70;1.80;;;10.00;96.10;;;;;;5007405;28;20513;-70
2023/03/15 10:53:10;;;;;;;3.00;1.50;;;9.60;95.80;;;;;;5009330;28;20480;-69
2023/03/15 10:55:44;;;;;;;4.80;1.87;;;9.90;96.90;;;;;;5008470;28;20545;-73
2023/03/15 10:58:20;;;;;;;10.53;2.43;;;9.50;96.40;;;;;;5021106;28;20409;-69
2023/03/15 11:01:02;;;;;;;3.10;1.80;;;9.50;97.50;;;;;;5022652;28;20508;-73
2023/03/15 11:03:29;;;;;;;2.23;1.17;;;9.80;96.10;;;;;;5019739;28;20422;-69
2023/03/15 11:05:57;;;;;;;2.80;1.30;;;10.00;95.20;;;;;;5013894;28;20424;-70
2023/03/15 11:08:36;;;;;;;3.93;1.87;;;9.90;96.30;;;;;;5024827;28;20425;-70
2023/03/15 11:11:02;;;;;;;4.50;1.73;;;9.90;96.50;;;;;;5015462;28;20525;-69
2023/03/15 11:13:38;;;;;;;2.83;1.60;;;9.60;96.40;;;;;;5022663;28;20425;-67
2023/03/15 11:16:20;;;;;;;3.13;1.73;;;9.30;96.10;;;;;;5008337;28;20514;-69
2023/03/15 11:18:56;;;;;;;2.80;1.50;;;9.20;96.20;;;;;;5008150;28;20852;-71
2023/03/15 11:21:25;;;;;;;1.93;1.40;;;9.00;96.30;;;;;;5009761;28;20858;-69
2023/03/15 11:23:51;;;;;;;3.23;1.70;;;8.90;97.10;;;;;;5006937;28;20423;-69
2023/03/15 11:26:24;;;;;;;4.90;1.83;;;8.80;97.20;;;;;;5008512;28;20765;-67
2023/03/15 11:29:05;;;;;;;2.40;1.57;;;8.90;97.30;;;;;;5024229;28;20777;-68
2023/03/15 11:31:32;;;;;;;3.47;1.50;;;9.20;97.50;;;;;;5014772;28;20824;-71
2023/03/15 11:34:11;;;;;;;2.60;1.30;;;9.30;96.60;;;;;;5019248;28;20422;-70
2023/03/15 11:36:42;;;;;;;3.87;1.67;;;9.00;96.20;;;;;;5005314;28;20418;-71
2023/03/15 11:39:16;;;;;;;2.00;1.40;;;9.20;96.40;;;;;;5007730;28;20435;-70
2023/03/15 11:41:50;;;;;;;1.97;1.10;;;9.00;96.00;;;;;;5045288;23;20999;-68
2023/03/15 11:44:24;;;;;;;3.30;1.40;;;9.20;97.20;;;;;;5024977;28;20413;-68
2023/03/15 11:46:56;;;;;;;2.93;1.37;;;9.50;96.30;;;;;;5024990;28;20499;-69
2023/03/15 11:49:24;;;;;;;2.20;1.20;;;9.40;96.00;;;;;;5023314;28;20424;-69
2023/03/15 11:51:54;;;;;;;2.90;1.00;;;9.10;95.90;;;;;;5024842;28;20421;-70
2023/03/15 11:54:21;;;;;;;7.03;1.30;;;9.20;96.00;;;;;;5024731;28;20803;-70
2023/03/15 11:56:54;;;;;;;3.67;1.37;;;9.00;94.00;;;;;;5024408;28;20425;-70
2023/03/15 11:59:37;;;;;;;1.30;1.00;;;8.80;94.90;;;;;;5025308;28;20548;-69
2023/03/15 12:02:09;;;;;;;5.13;1.30;;;8.70;94.20;;;;;;5025202;28;20990;-77
2023/03/15 12:04:34;;;;;;;1.57;1.10;;;8.80;93.90;;;;;;5024703;28;20406;-70
2023/03/15 12:07:02;;;;;;;3.40;1.33;;;8.70;93.90;;;;;;5024811;28;20415;-71
2023/03/15 12:09:30;;;;;;;3.70;1.33;;;8.80;94.10;;;;;;5025091;28;20214;-70
2023/03/15 12:12:22;;;;;;;2.33;1.00;;;8.70;93.80;;;;;;5023143;28;20450;-70
2023/03/15 12:15:01;;;;;;;3.50;1.33;;;8.60;93.90;;;;;;5016366;28;20434;-70
2023/03/15 12:17:26;;;;;;;1.90;1.17;;;8.70;93.70;;;;;;5024785;28;20390;-69
2023/03/15 12:20:00;;;;;;;4.90;1.83;;;8.80;93.90;;;;;;5023394;28;20509;-70
2023/03/15 12:22:31;;;;;;;3.43;1.80;;;9.10;94.00;;;;;;5024325;28;20212;-70
2023/03/15 12:25:03;;;;;;;3.03;2.10;;;9.50;93.70;;;;;;5024518;28;20426;-70
2023/03/15 12:27:28;;;;;;;4.83;1.60;;;9.80;93.60;;;;;;5024534;28;21617;-70
2023/03/15 12:30:00;;;;;;;2.70;1.00;;;9.80;93.50;;;;;;5024201;28;20500;-70
2023/03/15 12:32:29;;;;;;;3.17;1.13;;;9.60;93.60;;;;;;5024426;28;20450;-70
2023/03/15 12:35:07;;;;;;;1.90;1.30;;;9.50;93.80;;;;;;5024677;28;20441;-70
2023/03/15 12:37:39;;;;;;;4.47;1.33;;;9.80;93.70;;;;;;5023980;28;20927;-70
2023/03/15 12:40:14;;;;;;;4.53;1.70;;;10.00;92.90;;;;;;5024030;28;20828;-69
2023/03/15 12:42:39;;;;;;;3.10;1.20;;;9.90;93.40;;;;;;5023908;28;20459;-70
2023/03/15 12:45:14;;;;;;;2.00;1.33;;;9.70;93.60;;;;;;5024100;28;20424;-69
2023/03/15 12:47:49;;;;;;;2.17;1.20;;;9.50;94.10;;;;;;5023856;28;20182;-70
2023/03/15 12:50:43;;;;;;;5.87;1.30;;;9.70;94.90;;;;;;5023363;28;20937;-69
2023/03/15 12:53:36;;;;;;;3.57;1.40;;;9.60;94.00;;;;;;5020965;28;20500;-70
2023/03/15 12:56:24;;;;;;;3.00;1.60;;;9.60;95.10;;;;;;5015716;28;20431;-70
2023/03/15 12:58:54;;;;;;;2.73;1.80;;;9.20;94.90;;;;;;5023699;28;20416;-70
2023/03/15 13:01:24;;;;;;;2.00;1.60;;;9.20;95.00;;;;;;5023415;28;20949;-70
2023/03/15 13:03:54;;;;;;;5.23;1.87;;;9.10;95.10;;;;;;5023965;28;20406;-70